Time;durP1;ratioP1;P1;durP2;ratioP2;P2;SDS_P1;SDS_P2;PMS_P1;PMS_P2;Temp;Humidity;BMP_temperature;BMP_pressure;BME280_temperature;BME280_humidity;BME280_pressure;Samples;Min_cycle;Max_cycle;Signal;HPM_P1;HPM_P2
2022/10/13 00:00:29;;;;;;;;;;;12.40;99.90;;;;;;5013778;28;19960;-75
2022/10/13 00:02:54;;;;;;;;;;;12.40;99.90;;;;;;5013151;28;19967;-74
2022/10/13 00:05:20;;;;;;;;;;;12.40;99.90;;;;;;4995884;28;19905;-75
2022/10/13 00:07:45;;;;;;;;;;;12.40;99.90;;;;;;5013725;28;19949;-74
2022/10/13 00:10:11;;;;;;;;;;;12.40;99.90;;;;;;4995555;28;20365;-74
2022/10/13 00:12:37;;;;;;;;;;;12.40;99.90;;;;;;5013327;28;19905;-74
2022/10/13 00:15:03;;;;;;;;;;;12.40;99.90;;;;;;4995795;28;20004;-75
2022/10/13 00:17:29;;;;;;;;;;;12.40;99.90;;;;;;4995771;28;19959;-74
2022/10/13 00:19:54;;;;;;;;;;;12.40;99.90;;;;;;5013341;28;20000;-75
2022/10/13 00:22:20;;;;;;;;;;;12.40;99.90;;;;;;5013184;28;19921;-75
2022/10/13 00:24:49;;;;;;;;;;;12.40;99.90;;;;;;5013597;28;20001;-75
2022/10/13 00:27:14;;;;;;;;;;;12.40;99.90;;;;;;5013356;28;19906;-75
2022/10/13 00:29:40;;;;;;;;;;;12.40;99.90;;;;;;5013450;28;20338;-76
2022/10/13 00:32:05;;;;;;;;;;;12.40;99.90;;;;;;5013191;28;19906;-74
2022/10/13 00:34:31;;;;;;;;;;;12.40;99.90;;;;;;5013080;28;19905;-75
2022/10/13 00:36:56;;;;;;;;;;;12.40;99.90;;;;;;5013187;28;19905;-75
2022/10/13 00:39:22;;;;;;;;;;;12.40;99.90;;;;;;5013400;28;19932;-75
2022/10/13 00:41:47;;;;;;;;;;;12.40;99.90;;;;;;5012986;28;20011;-74
2022/10/13 00:44:31;;;;;;;;;;;12.40;99.90;;;;;;5013148;28;20280;-74
2022/10/13 00:46:57;;;;;;;;;;;12.40;99.90;;;;;;4995262;28;19912;-75
2022/10/13 00:49:22;;;;;;;;;;;12.30;99.90;;;;;;5012998;28;19905;-75
2022/10/13 00:51:49;;;;;;;;;;;12.30;99.90;;;;;;5013043;28;19905;-75
2022/10/13 00:54:16;;;;;;;;;;;12.30;99.90;;;;;;5013250;28;19909;-75
2022/10/13 00:56:42;;;;;;;;;;;12.30;99.90;;;;;;4991923;28;19914;-75
2022/10/13 00:59:11;;;;;;;;;;;12.20;99.90;;;;;;4993415;28;19906;-74
2022/10/13 01:01:36;;;;;;;;;;;12.20;99.90;;;;;;4991574;28;19916;-75
2022/10/13 01:04:02;;;;;;;;;;;12.20;99.90;;;;;;4993386;28;20000;-75
2022/10/13 01:06:28;;;;;;;;;;;12.10;99.90;;;;;;4993214;28;19909;-75
2022/10/13 01:08:53;;;;;;;;;;;12.00;99.90;;;;;;4993349;28;20341;-75
2022/10/13 01:11:25;;;;;;;;;;;12.00;99.90;;;;;;4992438;28;19906;-75
2022/10/13 01:13:57;;;;;;;;;;;11.90;99.90;;;;;;4993062;28;19906;-78
2022/10/13 01:16:30;;;;;;;;;;;11.80;99.90;;;;;;4992816;28;19906;-75
2022/10/13 01:19:02;;;;;;;;;;;11.70;99.90;;;;;;4993044;28;20413;-75
2022/10/13 01:21:34;;;;;;;;;;;11.60;99.90;;;;;;4992934;28;19920;-76
2022/10/13 01:24:00;;;;;;;;;;;11.60;99.90;;;;;;4992730;28;19916;-75
2022/10/13 01:26:32;;;;;;;;;;;11.50;99.90;;;;;;4993075;28;19996;-75
2022/10/13 01:29:06;;;;;;;;;;;11.40;99.90;;;;;;4991484;28;19932;-74
2022/10/13 01:31:46;;;;;;;;;;;11.30;99.90;;;;;;4992664;28;19961;-75
2022/10/13 01:34:14;;;;;;;;;;;11.30;99.90;;;;;;4991393;28;20387;-77
2022/10/13 01:36:52;;;;;;;;;;;11.20;99.90;;;;;;4991513;28;19912;-75
2022/10/13 01:39:30;;;;;;;;;;;11.20;99.90;;;;;;4993200;28;19920;-74
2022/10/13 01:42:00;;;;;;;;;;;11.10;99.90;;;;;;4991545;28;19918;-74
2022/10/13 01:44:29;;;;;;;;;;;11.10;99.90;;;;;;4992854;28;19912;-74
2022/10/13 01:46:55;;;;;;;;;;;11.00;99.90;;;;;;4992804;28;19905;-75
2022/10/13 01:49:25;;;;;;;;;;;11.00;99.90;;;;;;4992730;28;19912;-75
2022/10/13 01:51:51;;;;;;;;;;;10.90;99.90;;;;;;4992579;28;20381;-74
2022/10/13 01:54:16;;;;;;;;;;;10.90;99.90;;;;;;4992748;28;19948;-74
2022/10/13 01:56:50;;;;;;;;;;;10.90;99.90;;;;;;4996828;28;20305;-74
2022/10/13 01:59:15;;;;;;;;;;;10.80;99.90;;;;;;4994877;28;19997;-74
2022/10/13 02:02:04;;;;;;;;;;;10.80;99.90;;;;;;5012128;28;20004;-75
2022/10/13 02:04:40;;;;;;;;;;;10.80;99.90;;;;;;4999090;28;19905;-75
2022/10/13 02:07:24;;;;;;;;;;;10.80;99.90;;;;;;4994656;28;19906;-74
2022/10/13 02:09:52;;;;;;;;;;;10.80;99.90;;;;;;5012270;28;19952;-74
2022/10/13 02:12:29;;;;;;;;;;;10.80;99.90;;;;;;5012240;28;19906;-74
2022/10/13 02:14:56;;;;;;;;;;;10.70;99.90;;;;;;5015858;28;19905;-74
2022/10/13 02:17:21;;;;;;;;;;;10.70;99.90;;;;;;5015935;28;20246;-75
2022/10/13 02:19:47;;;;;;;;;;;10.60;99.90;;;;;;5016158;28;19984;-75
2022/10/13 02:22:14;;;;;;;;;;;10.60;99.90;;;;;;4997999;28;20360;-73
2022/10/13 02:24:40;;;;;;;;;;;10.60;99.90;;;;;;5015487;28;19910;-74
2022/10/13 02:27:05;;;;;;;;;;;10.60;99.90;;;;;;5015745;28;20376;-74
2022/10/13 02:29:31;;;;;;;;;;;10.60;99.90;;;;;;4998051;28;19905;-75
2022/10/13 02:31:57;;;;;;;;;;;10.50;99.90;;;;;;5015534;28;19972;-75
2022/10/13 02:34:22;;;;;;;;;;;10.60;99.90;;;;;;5015432;28;19906;-73
2022/10/13 02:36:48;;;;;;;;;;;10.50;99.90;;;;;;5015434;28;19913;-74
2022/10/13 02:39:13;;;;;;;;;;;10.50;99.90;;;;;;5015341;28;19994;-74
2022/10/13 02:41:39;;;;;;;;;;;10.60;99.90;;;;;;5015183;28;19913;-74
2022/10/13 02:44:05;;;;;;;;;;;10.50;99.90;;;;;;5015365;28;19917;-74
2022/10/13 02:46:30;;;;;;;;;;;10.50;99.90;;;;;;5015338;28;19996;-76
2022/10/13 02:48:56;;;;;;;;;;;10.50;99.90;;;;;;5015273;28;19992;-75
2022/10/13 02:51:21;;;;;;;;;;;10.50;99.90;;;;;;5015248;28;19902;-74
2022/10/13 02:53:47;;;;;;;;;;;10.50;99.90;;;;;;5015101;28;20363;-76
2022/10/13 02:56:12;;;;;;;;;;;10.60;99.90;;;;;;4997465;28;19952;-75
2022/10/13 02:58:38;;;;;;;;;;;10.60;99.90;;;;;;5015078;28;19917;-74
2022/10/13 03:01:07;;;;;;;;;;;10.50;99.90;;;;;;5014619;28;19928;-74
2022/10/13 03:03:33;;;;;;;;;;;10.50;99.90;;;;;;4996770;28;20428;-74
2022/10/13 03:05:58;;;;;;;;;;;10.50;99.90;;;;;;5014167;28;20000;-74
2022/10/13 03:08:24;;;;;;;;;;;10.60;99.90;;;;;;5014697;28;20258;-75
2022/10/13 03:10:49;;;;;;;;;;;10.50;99.90;;;;;;5014206;28;19906;-75
2022/10/13 03:13:15;;;;;;;;;;;10.50;99.90;;;;;;5014113;28;19905;-77
2022/10/13 03:15:40;;;;;;;;;;;10.50;99.90;;;;;;5014516;28;19909;-76
2022/10/13 03:18:06;;;;;;;;;;;10.40;99.90;;;;;;5014104;28;20790;-75
2022/10/13 03:20:31;;;;;;;;;;;10.30;99.90;;;;;;5014281;28;19913;-75
2022/10/13 03:22:57;;;;;;;;;;;10.40;99.90;;;;;;5014566;28;19970;-77
2022/10/13 03:25:22;;;;;;;;;;;10.30;99.90;;;;;;5014385;28;20285;-76
2022/10/13 03:27:48;;;;;;;;;;;10.20;99.90;;;;;;5014607;28;19909;-78
2022/10/13 03:30:13;;;;;;;;;;;10.20;99.90;;;;;;5014670;28;19999;-77
2022/10/13 03:32:39;;;;;;;;;;;10.10;99.90;;;;;;4996832;28;20072;-74
2022/10/13 03:35:06;;;;;;;;;;;10.00;99.90;;;;;;4996944;28;19976;-75
2022/10/13 03:37:32;;;;;;;;;;;10.00;99.90;;;;;;5014192;28;19909;-76
2022/10/13 03:39:57;;;;;;;;;;;10.00;99.90;;;;;;5014425;28;19932;-77
2022/10/13 03:42:23;;;;;;;;;;;9.90;99.90;;;;;;5013550;28;19918;-75
2022/10/13 03:44:49;;;;;;;;;;;9.90;99.90;;;;;;5013812;28;19964;-76
2022/10/13 03:47:14;;;;;;;;;;;9.80;99.90;;;;;;5014132;28;19906;-77
2022/10/13 03:49:40;;;;;;;;;;;9.80;99.90;;;;;;5014189;28;19913;-76
2022/10/13 03:52:05;;;;;;;;;;;9.80;99.90;;;;;;4996432;28;19951;-74
2022/10/13 03:54:31;;;;;;;;;;;9.80;99.90;;;;;;4996439;28;19902;-74
2022/10/13 03:56:56;;;;;;;;;;;9.80;99.90;;;;;;5013870;28;20262;-76
2022/10/13 03:59:22;;;;;;;;;;;9.80;99.90;;;;;;5013894;28;19909;-75
2022/10/13 04:01:47;;;;;;;;;;;9.80;99.90;;;;;;4996094;28;20391;-76
2022/10/13 04:04:13;;;;;;;;;;;9.80;99.90;;;;;;5013986;28;20376;-75
2022/10/13 04:06:39;;;;;;;;;;;9.90;99.90;;;;;;5013852;28;19913;-75
2022/10/13 04:09:04;;;;;;;;;;;9.90;99.90;;;;;;5013907;28;20422;-75
2022/10/13 04:11:29;;;;;;;;;;;9.90;99.90;;;;;;5013458;28;20054;-75
2022/10/13 04:13:56;;;;;;;;;;;9.90;99.90;;;;;;5013568;28;19901;-74
2022/10/13 04:16:23;;;;;;;;;;;9.90;99.90;;;;;;4996035;28;19913;-74
2022/10/13 04:19:06;;;;;;;;;;;9.90;99.90;;;;;;4995894;28;19902;-75
2022/10/13 04:21:32;;;;;;;;;;;9.80;99.90;;;;;;4995760;28;19905;-74
2022/10/13 04:23:58;;;;;;;;;;;9.80;99.90;;;;;;5013459;28;19956;-74
2022/10/13 04:26:26;;;;;;;;;;;9.80;99.90;;;;;;5013509;28;19905;-75
2022/10/13 04:28:52;;;;;;;;;;;9.80;99.90;;;;;;4995724;28;19905;-76
2022/10/13 04:31:20;;;;;;;;;;;9.70;99.90;;;;;;5013121;28;19932;-75
2022/10/13 04:33:46;;;;;;;;;;;9.70;99.90;;;;;;5013443;28;19909;-76
2022/10/13 04:36:12;;;;;;;;;;;9.70;99.90;;;;;;4995048;28;20367;-77
2022/10/13 04:38:38;;;;;;;;;;;9.60;99.90;;;;;;5013197;28;19905;-76
2022/10/13 04:41:05;;;;;;;;;;;9.60;99.90;;;;;;5013362;28;19906;-75
2022/10/13 04:43:31;;;;;;;;;;;9.60;99.90;;;;;;5013434;28;20356;-75
2022/10/13 04:46:12;;;;;;;;;;;9.60;99.90;;;;;;5014701;28;20008;-75
2022/10/13 04:48:38;;;;;;;;;;;9.60;99.90;;;;;;5013585;28;20353;-76
2022/10/13 04:51:06;;;;;;;;;;;9.80;99.90;;;;;;5012848;28;19905;-75
2022/10/13 04:53:31;;;;;;;;;;;9.80;99.90;;;;;;5013751;28;19902;-75
2022/10/13 04:56:01;;;;;;;;;;;9.70;99.90;;;;;;5013353;28;19909;-75
2022/10/13 04:58:27;;;;;;;;;;;9.60;99.90;;;;;;4992856;28;19928;-81
2022/10/13 05:00:52;;;;;;;;;;;9.60;99.90;;;;;;4993862;28;20261;-76
2022/10/13 05:03:18;;;;;;;;;;;9.50;99.90;;;;;;4994082;28;19917;-75
2022/10/13 05:05:43;;;;;;;;;;;9.50;99.90;;;;;;4993813;28;20372;-74
2022/10/13 05:08:09;;;;;;;;;;;9.50;99.90;;;;;;4993768;28;20484;-75
2022/10/13 05:10:34;;;;;;;;;;;9.40;99.90;;;;;;4994481;28;19906;-74
2022/10/13 05:13:00;;;;;;;;;;;9.40;99.90;;;;;;4994052;28;20004;-75
2022/10/13 05:15:26;;;;;;;;;;;9.40;99.90;;;;;;4992583;28;19906;-75
2022/10/13 05:17:51;;;;;;;;;;;9.40;99.90;;;;;;4993880;28;19933;-75
2022/10/13 05:20:17;;;;;;;;;;;9.40;99.90;;;;;;4992416;28;19906;-75
2022/10/13 05:22:42;;;;;;;;;;;9.40;99.90;;;;;;4993259;28;20360;-75
2022/10/13 05:25:08;;;;;;;;;;;9.40;99.90;;;;;;4993063;28;20373;-75
2022/10/13 05:27:33;;;;;;;;;;;9.40;99.90;;;;;;4993165;28;19913;-76
2022/10/13 05:29:59;;;;;;;;;;;10.10;99.90;;;;;;4991773;28;19920;-76
2022/10/13 05:32:24;;;;;;;;;;;10.30;99.90;;;;;;4991336;28;20319;-77
2022/10/13 05:34:50;;;;;;;;;;;10.20;99.90;;;;;;4991573;28;19933;-76
2022/10/13 05:37:17;;;;;;;;;;;10.00;99.90;;;;;;4987950;28;19909;-78
2022/10/13 05:39:42;;;;;;;;;;;9.90;99.90;;;;;;4991496;28;20289;-76
2022/10/13 05:42:08;;;;;;;;;;;9.80;99.90;;;;;;4991929;28;19914;-77
2022/10/13 05:44:43;;;;;;;;;;;9.70;99.90;;;;;;4998159;28;19913;-88
2022/10/13 05:52:42;;;;;;;;;;;9.50;99.90;;;;;;5099391;23;19921;-77
2022/10/13 05:55:12;;;;;;;;;;;9.50;99.90;;;;;;5024784;28;19905;-87
2022/10/13 05:57:40;;;;;;;;;;;9.50;99.90;;;;;;4995269;28;19913;-86
2022/10/13 06:00:05;;;;;;;;;;;9.50;99.90;;;;;;4983238;28;19910;-86
2022/10/13 06:02:33;;;;;;;;;;;9.50;99.90;;;;;;4981805;28;20273;-88
2022/10/13 06:05:00;;;;;;;;;;;9.60;99.90;;;;;;4987979;28;20378;-84
2022/10/13 06:07:26;;;;;;;;;;;9.60;99.90;;;;;;5001829;28;19940;-84
2022/10/13 06:09:51;;;;;;;;;;;9.70;99.90;;;;;;5002192;28;19963;-84
2022/10/13 06:12:17;;;;;;;;;;;9.60;99.90;;;;;;5018519;28;19924;-84
2022/10/13 06:14:43;;;;;;;;;;;9.60;99.90;;;;;;5017902;28;19905;-85
2022/10/13 06:17:08;;;;;;;;;;;9.60;99.90;;;;;;5017703;28;19945;-83
2022/10/13 06:19:34;;;;;;;;;;;9.60;99.90;;;;;;5000966;28;19905;-83
2022/10/13 06:21:59;;;;;;;;;;;9.60;99.90;;;;;;4999863;28;19917;-83
2022/10/13 06:24:25;;;;;;;;;;;9.70;99.90;;;;;;4999203;28;19905;-85
2022/10/13 06:26:50;;;;;;;;;;;9.70;99.90;;;;;;4991094;28;19913;-83
2022/10/13 06:29:16;;;;;;;;;;;9.70;99.90;;;;;;4997948;28;19959;-84
2022/10/13 06:31:41;;;;;;;;;;;9.60;99.90;;;;;;5009662;28;19970;-82
2022/10/13 06:34:07;;;;;;;;;;;9.70;99.90;;;;;;4998875;28;20272;-82
2022/10/13 06:36:32;;;;;;;;;;;9.80;99.90;;;;;;4998166;28;19909;-84
2022/10/13 06:38:58;;;;;;;;;;;9.90;99.90;;;;;;4998803;28;19913;-86
2022/10/13 06:41:23;;;;;;;;;;;9.90;99.90;;;;;;4999655;28;19905;-85
2022/10/13 06:43:49;;;;;;;;;;;9.90;99.90;;;;;;4993025;28;20353;-88
2022/10/13 06:46:14;;;;;;;;;;;10.00;99.90;;;;;;4998006;28;20040;-85
2022/10/13 06:48:40;;;;;;;;;;;10.10;99.90;;;;;;4999270;28;20383;-87
2022/10/13 06:51:09;;;;;;;;;;;10.10;99.90;;;;;;5016136;28;19909;-84
2022/10/13 06:53:35;;;;;;;;;;;10.10;99.90;;;;;;5016175;28;19924;-83
2022/10/13 06:56:01;;;;;;;;;;;10.20;99.90;;;;;;5016436;28;20000;-77
2022/10/13 06:58:26;;;;;;;;;;;10.20;99.90;;;;;;5013964;28;20377;-77
2022/10/13 07:00:52;;;;;;;;;;;10.30;99.90;;;;;;4996468;28;19937;-77
2022/10/13 07:03:18;;;;;;;;;;;10.40;99.90;;;;;;4997111;28;20000;-77
2022/10/13 07:05:43;;;;;;;;;;;10.50;99.90;;;;;;5014776;28;19909;-78
2022/10/13 07:08:09;;;;;;;;;;;10.50;99.90;;;;;;4996322;28;19905;-76
2022/10/13 07:10:36;;;;;;;;;;;10.60;99.90;;;;;;4995417;28;19912;-76
2022/10/13 07:13:01;;;;;;;;;;;10.70;99.90;;;;;;4993997;28;19960;-75
2022/10/13 07:15:27;;;;;;;;;;;10.80;99.90;;;;;;4995201;28;19909;-76
2022/10/13 07:17:53;;;;;;;;;;;10.80;99.90;;;;;;4993781;28;19906;-77
2022/10/13 07:20:20;;;;;;;;;;;10.90;99.90;;;;;;4995045;28;20285;-75
2022/10/13 07:22:46;;;;;;;;;;;10.90;99.90;;;;;;4994573;28;19957;-77
2022/10/13 07:25:11;;;;;;;;;;;11.10;99.90;;;;;;5009724;28;19956;-78
2022/10/13 07:27:39;;;;;;;;;;;11.20;99.90;;;;;;5014060;28;19968;-80
2022/10/13 07:30:05;;;;;;;;;;;11.30;99.90;;;;;;4996873;28;19902;-79
2022/10/13 07:32:31;;;;;;;;;;;11.30;99.90;;;;;;4996256;28;19983;-80
2022/10/13 07:34:56;;;;;;;;;;;11.30;99.90;;;;;;4996331;28;19905;-80
2022/10/13 07:37:22;;;;;;;;;;;11.30;99.90;;;;;;5014000;28;19944;-80
2022/10/13 07:39:47;;;;;;;;;;;11.40;99.90;;;;;;5014179;28;19944;-80
2022/10/13 07:42:13;;;;;;;;;;;11.50;99.90;;;;;;5014044;28;20006;-79
2022/10/13 07:44:38;;;;;;;;;;;11.50;99.90;;;;;;5014597;28;19953;-79
2022/10/13 07:47:04;;;;;;;;;;;11.50;99.90;;;;;;4996958;28;19905;-81
2022/10/13 07:49:29;;;;;;;;;;;11.90;99.90;;;;;;4996783;28;19910;-79
2022/10/13 07:51:55;;;;;;;;;;;12.20;99.90;;;;;;5014158;28;19928;-79
2022/10/13 07:54:20;;;;;;;;;;;12.20;99.90;;;;;;4996514;28;20353;-79
2022/10/13 07:56:49;;;;;;;;;;;12.30;99.90;;;;;;5014407;28;19906;-80
2022/10/13 07:59:15;;;;;;;;;;;12.20;99.90;;;;;;5014303;28;19983;-79
2022/10/13 08:01:40;;;;;;;;;;;12.10;99.90;;;;;;4996311;28;19902;-79
2022/10/13 08:04:06;;;;;;;;;;;12.10;99.90;;;;;;5013961;28;19952;-80
2022/10/13 08:06:31;;;;;;;;;;;12.00;99.90;;;;;;4996344;28;19909;-79
2022/10/13 08:08:59;;;;;;;;;;;12.10;99.90;;;;;;4996261;28;19913;-79
2022/10/13 08:11:25;;;;;;;;;;;12.10;99.90;;;;;;5013296;28;19909;-79
2022/10/13 08:13:51;;;;;;;;;;;12.20;99.90;;;;;;4996612;28;19905;-83
2022/10/13 08:16:17;;;;;;;;;;;12.40;99.90;;;;;;5014120;28;19909;-79
2022/10/13 08:18:42;;;;;;;;;;;12.50;99.90;;;;;;4996226;28;20267;-79
2022/10/13 08:21:10;;;;;;;;;;;12.60;99.90;;;;;;4995946;28;19909;-78
2022/10/13 08:23:36;;;;;;;;;;;12.60;99.90;;;;;;4996132;28;19913;-74
2022/10/13 08:26:01;;;;;;;;;;;12.60;99.90;;;;;;5014021;28;20380;-82
2022/10/13 08:28:27;;;;;;;;;;;12.70;99.90;;;;;;4996236;28;19909;-79
2022/10/13 08:30:56;;;;;;;;;;;12.80;99.90;;;;;;4996345;28;19906;-83
2022/10/13 08:33:22;;;;;;;;;;;12.80;99.90;;;;;;4996044;28;19992;-79
2022/10/13 08:35:47;;;;;;;;;;;12.90;99.90;;;;;;4995955;28;19941;-80
2022/10/13 08:38:13;;;;;;;;;;;12.90;99.90;;;;;;5013839;28;19955;-79
2022/10/13 08:40:44;;;;;;;;;;;13.00;99.90;;;;;;4996088;28;19905;-84
2022/10/13 08:43:14;;;;;;;;;;;13.10;99.90;;;;;;4996111;28;19967;-84
2022/10/13 08:45:40;;;;;;;;;;;13.20;99.90;;;;;;4995817;28;20010;-77
2022/10/13 08:48:09;;;;;;;;;;;13.40;99.90;;;;;;5013315;28;20006;-78
2022/10/13 08:50:37;;;;;;;;;;;13.50;99.90;;;;;;5012937;28;20007;-79
2022/10/13 08:53:11;;;;;;;;;;;13.70;99.90;;;;;;5012920;28;20387;-78
2022/10/13 08:55:36;;;;;;;;;;;13.80;99.90;;;;;;5013141;28;19963;-78
2022/10/13 08:58:05;;;;;;;;;;;14.10;99.90;;;;;;5013111;28;20276;-79
2022/10/13 09:00:31;;;;;;;;;;;14.30;99.90;;;;;;4995880;28;19912;-80
2022/10/13 09:03:08;;;;;;;;;;;14.50;99.90;;;;;;4995528;28;20447;-78
2022/10/13 09:05:42;;;;;;;;;;;14.60;99.90;;;;;;4995044;28;19905;-78
2022/10/13 09:08:13;;;;;;;;;;;14.70;99.90;;;;;;5013090;28;19905;-79
2022/10/13 09:10:49;;;;;;;;;;;14.80;99.90;;;;;;5013094;28;19975;-81
2022/10/13 09:13:14;;;;;;;;;;;14.90;99.90;;;;;;4996315;28;19909;-83
2022/10/13 09:15:44;;;;;;;;;;;15.00;99.90;;;;;;4994405;28;19910;-80
2022/10/13 09:18:11;;;;;;;;;;;15.10;99.90;;;;;;4978316;28;19906;-79
2022/10/13 09:20:37;;;;;;;;;;;15.20;99.90;;;;;;4975733;28;19912;-78
2022/10/13 09:23:03;;;;;;;;;;;15.30;99.90;;;;;;4975456;28;19914;-82
2022/10/13 09:25:37;;;;;;;;;;;15.40;99.90;;;;;;4993652;28;19952;-82
2022/10/13 09:28:08;;;;;;;;;;;15.60;99.90;;;;;;4977015;28;19913;-79
2022/10/13 09:30:38;;;;;;;;;;;15.70;99.90;;;;;;4993307;28;20000;-79
2022/10/13 09:33:03;;;;;;;;;;;15.80;99.90;;;;;;4975298;28;19913;-79
2022/10/13 09:35:31;;;;;;;;;;;15.90;99.90;;;;;;4993691;28;19902;-87
2022/10/13 09:38:02;;;;;;;;;;;16.00;99.90;;;;;;4995250;28;19910;-90
2022/10/13 09:40:31;;;;;;;;;;;16.10;99.90;;;;;;4977616;28;19913;-81
2022/10/13 09:42:57;;;;;;;;;;;16.30;99.90;;;;;;4993145;28;20425;-82
2022/10/13 09:45:25;;;;;;;;;;;;;;;;;;4976094;28;19912;-87
2022/10/13 09:47:53;;;;;;;;;;;;;;;;;;4975913;28;19969;-80
2022/10/13 09:50:28;;;;;;;;;;;16.50;99.90;;;;;;4993511;28;19961;-83
2022/10/13 09:53:08;;;;;;;;;;;17.50;99.90;;;;;;4976065;28;20012;-81
2022/10/13 09:55:34;;;;;;;;;;;16.60;99.90;;;;;;4976020;28;19945;-84
2022/10/13 09:58:20;;;;;;;;;;;16.70;99.90;;;;;;4976142;28;19912;-83
2022/10/13 10:00:48;;;;;;;;;;;16.80;99.90;;;;;;4974906;28;19972;-80
2022/10/13 10:03:19;;;;;;;;;;;16.90;99.90;;;;;;4975686;28;20340;-87
2022/10/13 10:05:50;;;;;;;;;;;16.90;99.90;;;;;;4975945;28;19913;-89
2022/10/13 10:08:38;;;;;;;;;;;17.00;99.90;;;;;;4993298;28;19913;-90
2022/10/13 10:11:08;;;;;;;;;;;17.10;99.90;;;;;;4992621;28;19909;-77
2022/10/13 10:13:34;;;;;;;;;;;17.10;99.90;;;;;;5008167;28;19913;-77
2022/10/13 10:16:11;;;;;;;;;;;17.20;99.90;;;;;;5013073;28;19910;-79
2022/10/13 10:19:06;;;;;;;;;;;17.20;99.90;;;;;;5013614;28;19916;-88
2022/10/13 10:21:44;;;;;;;;;;;17.30;99.90;;;;;;4967431;28;20016;-93
2022/10/13 10:24:33;;;;;;;;;;;17.50;99.90;;;;;;4980367;28;19921;-91
2022/10/13 10:27:07;;;;;;;;;;;17.60;99.90;;;;;;5007933;28;19910;-92
2022/10/13 10:29:39;;;;;;;;;;;17.70;99.90;;;;;;5029292;28;19910;-90
2022/10/13 10:32:24;;;;;;;;;;;17.80;99.90;;;;;;4997451;28;19912;-93
2022/10/13 10:34:50;;;;;;;;;;;17.90;99.90;;;;;;5003448;28;19909;-89
2022/10/13 10:37:34;;;;;;;;;;;18.10;99.60;;;;;;4999751;28;19905;-87
2022/10/13 10:40:18;;;;;;;;;;;18.20;98.60;;;;;;4985310;28;20001;-88
2022/10/13 10:42:50;;;;;;;;;;;18.30;98.80;;;;;;4992822;28;20375;-89
2022/10/13 10:45:17;;;;;;;;;;;18.20;98.70;;;;;;4997891;28;19915;-78
2022/10/13 10:47:44;;;;;;;;;;;18.20;98.60;;;;;;4997650;28;20341;-77
2022/10/13 10:50:13;;;;;;;;;;;18.10;98.50;;;;;;5015372;28;19932;-76
2022/10/13 10:52:48;;;;;;;;;;;18.10;98.50;;;;;;5014742;28;19917;-77
2022/10/13 10:55:33;;;;;;;;;;;18.10;98.50;;;;;;5015391;28;19906;-77
2022/10/13 10:58:08;;;;;;;;;;;18.10;99.00;;;;;;4995574;28;19928;-75
2022/10/13 11:00:38;;;;;;;;;;;18.20;99.30;;;;;;5006707;28;19918;-77
2022/10/13 11:03:03;;;;;;;;;;;18.20;99.00;;;;;;5004422;28;20384;-76
2022/10/13 11:05:48;;;;;;;;;;;18.10;99.20;;;;;;5009988;28;19910;-76
2022/10/13 11:08:27;;;;;;;;;;;18.20;99.60;;;;;;4983992;28;19920;-75
2022/10/13 11:11:11;;;;;;;;;;;18.30;99.70;;;;;;4999040;28;19933;-77
2022/10/13 11:13:49;;;;;;;;;;;18.40;99.90;;;;;;5006232;28;19909;-76
2022/10/13 11:16:33;;;;;;;;;;;18.70;98.70;;;;;;4988591;28;19902;-77
2022/10/13 11:19:06;;;;;;;;;;;18.70;98.60;;;;;;4994684;28;19963;-75
2022/10/13 11:21:51;;;;;;;;;;;18.60;98.40;;;;;;5001095;28;19914;-75
2022/10/13 11:24:38;;;;;;;;;;;18.50;98.70;;;;;;4993516;28;19924;-77
2022/10/13 11:27:06;;;;;;;;;;;18.50;98.20;;;;;;5007126;28;19917;-75
2022/10/13 11:29:56;;;;;;;;;;;18.50;98.50;;;;;;5004340;28;20286;-75
2022/10/13 11:32:31;;;;;;;;;;;18.40;98.60;;;;;;5007379;28;19914;-76
2022/10/13 11:34:57;;;;;;;;;;;18.40;98.70;;;;;;4982645;28;20735;-76
2022/10/13 11:37:24;;;;;;;;;;;18.30;98.90;;;;;;5003212;28;19913;-76
2022/10/13 11:39:58;;;;;;;;;;;18.30;99.20;;;;;;5005976;28;19910;-76
2022/10/13 11:42:30;;;;;;;;;;;18.50;98.90;;;;;;5003484;28;19929;-77
2022/10/13 11:44:57;;;;;;;;;;;18.60;98.40;;;;;;5000632;28;19909;-78
2022/10/13 11:47:41;;;;;;;;;;;18.70;97.70;;;;;;4984211;28;20375;-76
2022/10/13 11:50:18;;;;;;;;;;;18.80;99.90;;;;;;5005803;28;19910;-77
2022/10/13 11:52:43;;;;;;;;;;;18.70;97.20;;;;;;4998672;28;19918;-79
2022/10/13 11:55:16;;;;;;;;;;;18.70;96.70;;;;;;5012051;28;19912;-79
2022/10/13 11:57:42;;;;;;;;;;;18.60;96.20;;;;;;5013911;28;19906;-78
2022/10/13 12:00:15;;;;;;;;;;;18.50;96.80;;;;;;4996305;28;20463;-78
2022/10/13 12:02:49;;;;;;;;;;;18.50;96.40;;;;;;5013422;28;19924;-78
2022/10/13 12:05:25;;;;;;;;;;;18.50;96.30;;;;;;4996105;28;19967;-78
2022/10/13 12:07:52;;;;;;;;;;;18.60;97.10;;;;;;5013737;28;19908;-81
2022/10/13 12:10:28;;;;;;;;;;;18.70;97.30;;;;;;5013656;28;20366;-78
2022/10/13 12:12:54;;;;;;;;;;;18.80;99.90;;;;;;4995742;28;19905;-79
2022/10/13 12:15:27;;;;;;;;;;;18.90;99.90;;;;;;4995871;28;19920;-79
2022/10/13 12:17:52;;;;;;;;;;;18.90;99.60;;;;;;4995854;28;20048;-79
2022/10/13 12:20:22;;;;;;;;;;;18.90;97.80;;;;;;4995555;28;19948;-79
2022/10/13 12:22:48;;;;;;;;;;;18.80;95.80;;;;;;5013250;28;19920;-79
2022/10/13 12:25:14;;;;;;;;;;;18.70;95.80;;;;;;4992320;28;19909;-80
2022/10/13 12:27:44;;;;;;;;;;;18.80;96.30;;;;;;4995755;28;20024;-79
2022/10/13 12:30:24;;;;;;;;;;;18.90;98.30;;;;;;5013639;28;19909;-80
2022/10/13 12:32:51;;;;;;;;;;;18.90;95.40;;;;;;4995262;28;20068;-79
2022/10/13 12:35:19;;;;;;;;;;;18.90;94.50;;;;;;4996198;28;19932;-78
2022/10/13 12:37:45;;;;;;;;;;;18.90;94.90;;;;;;4995151;28;19919;-79
2022/10/13 12:40:12;;;;;;;;;;;18.80;99.90;;;;;;4991030;28;20318;-78
2022/10/13 12:42:38;;;;;;;;;;;18.80;94.80;;;;;;5006380;28;19964;-79
2022/10/13 12:45:04;;;;;;;;;;;18.70;95.00;;;;;;5003522;28;20394;-78
2022/10/13 12:47:38;;;;;;;;;;;18.60;94.70;;;;;;4981797;28;19906;-78
2022/10/13 12:50:22;;;;;;;;;;;18.70;94.80;;;;;;4993322;28;19932;-79
2022/10/13 12:52:49;;;;;;;;;;;18.50;94.80;;;;;;4990271;28;19917;-78
2022/10/13 12:55:16;;;;;;;;;;;18.50;95.70;;;;;;5001966;28;19910;-78
2022/10/13 12:57:43;;;;;;;;;;;18.40;96.60;;;;;;5007448;28;20059;-78
2022/10/13 13:00:18;;;;;;;;;;;18.50;97.30;;;;;;5010222;28;19909;-78
2022/10/13 13:02:51;;;;;;;;;;;18.60;97.50;;;;;;4992527;28;20052;-79
2022/10/13 13:05:35;;;;;;;;;;;18.60;96.70;;;;;;4992083;28;19936;-78
2022/10/13 13:08:02;;;;;;;;;;;18.50;96.20;;;;;;4992071;28;20261;-79
2022/10/13 13:10:27;;;;;;;;;;;18.70;99.90;;;;;;4993419;28;19921;-78
2022/10/13 13:12:56;;;;;;;;;;;18.50;96.50;;;;;;4992099;28;19906;-79
2022/10/13 13:15:24;;;;;;;;;;;18.50;96.30;;;;;;5004064;28;19909;-80
2022/10/13 13:17:50;;;;;;;;;;;18.50;96.50;;;;;;4996149;28;19929;-79
2022/10/13 13:20:19;;;;;;;;;;;18.50;96.00;;;;;;4993248;28;20392;-80
2022/10/13 13:22:44;;;;;;;;;;;18.50;96.00;;;;;;4993518;28;20261;-80
2022/10/13 13:25:10;;;;;;;;;;;18.60;96.00;;;;;;4996339;28;19910;-80
2022/10/13 13:27:37;;;;;;;;;;;18.70;95.80;;;;;;5013061;28;19973;-79
2022/10/13 13:30:03;;;;;;;;;;;18.70;95.40;;;;;;5012113;28;19909;-81
2022/10/13 13:32:29;;;;;;;;;;;18.70;94.90;;;;;;4995409;28;20004;-80
2022/10/13 13:34:55;;;;;;;;;;;18.70;95.00;;;;;;4991972;28;19913;-82
2022/10/13 13:37:20;;;;;;;;;;;18.70;95.00;;;;;;4991926;28;19906;-83
2022/10/13 13:39:46;;;;;;;;;;;18.80;94.90;;;;;;4993800;28;20000;-80
2022/10/13 13:42:13;;;;;;;;;;;18.80;94.30;;;;;;4991846;28;19914;-80
2022/10/13 13:44:38;;;;;;;;;;;18.90;94.10;;;;;;4999484;28;19913;-80
2022/10/13 13:47:04;;;;;;;;;;;18.90;93.70;;;;;;4999049;28;19910;-80
2022/10/13 13:49:29;;;;;;;;;;;18.80;93.60;;;;;;4991850;28;19913;-79
2022/10/13 13:51:55;;;;;;;;;;;18.80;93.50;;;;;;5012207;28;19917;-81
2022/10/13 13:54:20;;;;;;;;;;;18.80;93.40;;;;;;5013055;28;19905;-80
2022/10/13 13:56:46;;;;;;;;;;;18.80;93.00;;;;;;4994749;28;19902;-80
2022/10/13 13:59:11;;;;;;;;;;;18.80;92.10;;;;;;5012560;28;20329;-80
2022/10/13 14:01:37;;;;;;;;;;;18.80;92.60;;;;;;4994885;28;19901;-79
2022/10/13 14:04:02;;;;;;;;;;;18.80;93.00;;;;;;4994848;28;19917;-79
2022/10/13 14:06:28;;;;;;;;;;;18.80;92.80;;;;;;5012489;28;19906;-79
2022/10/13 14:08:53;;;;;;;;;;;18.80;92.40;;;;;;4995746;28;19955;-80
2022/10/13 14:11:19;;;;;;;;;;;18.80;92.60;;;;;;5008722;28;19957;-80
2022/10/13 14:13:44;;;;;;;;;;;18.80;92.90;;;;;;4996543;28;20080;-78
2022/10/13 14:16:13;;;;;;;;;;;18.80;92.80;;;;;;4979223;28;20004;-79
2022/10/13 14:18:39;;;;;;;;;;;18.70;93.00;;;;;;4978993;28;20346;-78
2022/10/13 14:21:05;;;;;;;;;;;18.70;92.80;;;;;;4979021;28;19912;-77
2022/10/13 14:23:30;;;;;;;;;;;18.70;94.60;;;;;;4996826;28;20522;-79
2022/10/13 14:25:56;;;;;;;;;;;18.70;92.60;;;;;;4996059;28;20345;-78
2022/10/13 14:28:21;;;;;;;;;;;18.60;92.60;;;;;;4996184;28;19936;-79
2022/10/13 14:30:47;;;;;;;;;;;18.50;92.90;;;;;;4978550;28;19909;-78
2022/10/13 14:33:17;;;;;;;;;;;18.40;92.90;;;;;;4995919;28;19910;-79